• Join FlightAware (Why Join?)
  • Login
  • US Flag 
12:00AM EDT


 

Airport Tracker/Info


-or-


 

Live Flight TrackerFlight Track Log ✈ EJA929 ✈ 09-Jul-2013 ✈ KLGA - KTWF

Flight Track Log - Related Links

Times and Time Zones

All times are in EDT time to prevent confusion due to time zone crossing. See the EJA929 flight status page for this flight to view local times or setup timezone preferences in your user account.

Time Position Orientation Groundspeed Altitude Reporting Facility
EDT Latitude Longitude Course Direction KTS MPH feet Rate Location/Type
02:27PM 40.7500 -73.8500 288° West 167 192 1,400  Level New York TRACON
02:28PM 40.7333 -73.7833 108° East 246 283 4,200 3,120 Climbing New York TRACON
02:29PM 40.7833 -73.8167 333° Northwest 223 257 7,700 2,460 Climbing New York TRACON
02:30PM 40.8500 -73.8667 330° Northwest 277 319 9,200 1,560 Climbing New York TRACON
02:31PM 40.9000 -73.9500 308° West 300 345 10,700 2,460 Climbing New York TRACON
02:32PM 40.9000 -74.0500 270° West 280 322 13,900 2,100 Climbing New York TRACON
02:33PM 40.8550 -74.6865 288° West  Level FlightAware Approximate
02:33PM 40.8667 -74.1500 246° West 306 352 15,000  Level New York TRACON
02:34PM 40.8167 -74.2667 241° Southwest 374 430 15,100 780 Climbing New York TRACON
02:35PM 40.8167 -74.4000 270° West 372 428 16,600 600 Climbing New York TRACON
02:38PM 40.8497 -74.7214 278° West 420 483 17,100 120 Climbing New York Center
02:39PM 40.8344 -74.8603 262° West 420 483 17,100 540 Level New York Center
02:40PM 40.8161 -75.0264 262° West 431 496 18,200 960 Climbing New York Center
02:41PM 40.7986 -75.1625 260° West 425 489 19,100 1,080 Climbing New York Center
02:42PM 40.7806 -75.3119 261° West 425 489 20,400 1,200 Climbing New York Center
02:43PM 40.7625 -75.4561 261° West 420 483 21,500 1,200 Climbing New York Center
02:44PM 40.7439 -75.6028 261° West 420 483 22,800 1,440 Climbing New York Center
02:45PM 40.7297 -75.7442 263° West 415 478 24,500 1,740 Climbing New York Center
02:46PM 40.7114 -75.8853 260° West 401 461 26,400 1,980 Climbing New York Center
02:47PM 40.6906 -76.0258 259° West 396 456 28,600 2,100 Climbing New York Center
02:48PM 40.6739 -76.1617 261° West 391 450 30,600 1,860 Climbing New York Center
02:49PM 40.6719 -76.2956 269° West 379 436 32,300 1,500 Climbing New York Center
02:50PM 40.6928 -76.4311 282° West 374 430 33,700 1,200 Climbing New York Center
02:51PM 40.7128 -76.5725 281° West 379 436 34,800 1,020 Climbing New York Center
02:52PM 40.7350 -76.7169 282° West 395 455 35,800 960 Climbing New York Center
02:53PM 40.7586 -76.8669 282° West 407 468 36,800 900 Climbing New York Center
02:54PM 40.7797 -77.0222 280° West 418 481 37,700 600 Climbing New York Center
02:55PM 40.8025 -77.1781 281° West 430 495 38,100 180 Climbing New York Center
02:56PM 40.8283 -77.3561 281° West 436 502 38,100  Level New York Center
02:58PM 40.8800 -77.7325 280° West 484 557 38,100  Level Cleveland Center
02:59PM 40.9053 -77.9100 281° West 484 557 38,100 180 Level Cleveland Center
03:00PM 40.9256 -78.0714 279° West 489 563 38,500 600 Climbing Cleveland Center
03:01PM 40.9464 -78.2631 278° West 489 563 39,400 1,020 Climbing Cleveland Center
03:02PM 40.9700 -78.4133 282° West 482 555 40,600 1,140 Climbing Cleveland Center
03:03PM 40.9878 -78.5806 278° West 476 548 41,700 1,080 Climbing Cleveland Center
03:04PM 41.0069 -78.7394 279° West 459 528 42,800 660 Climbing Cleveland Center
03:05PM 41.0283 -78.9042 280° West 454 522 43,100 60 Climbing Cleveland Center
03:07PM 41.0661 -79.2364 279° West 459 528 43,100  Level Cleveland Center
03:08PM 41.0847 -79.4042 278° West 465 535 43,100  Level Cleveland Center
03:09PM 41.1050 -79.5772 279° West 470 541 43,100  Level Cleveland Center
03:10PM 41.1253 -79.7672 278° West 476 548 43,100  Level Cleveland Center
03:11PM 41.1411 -79.9408 277° West 482 555 43,100  Level Cleveland Center
03:12PM 41.1606 -80.1114 279° West 477 549 43,100  Level Cleveland Center
03:13PM 41.1819 -80.2853 279° West 477 549 43,100  Level Cleveland Center
03:14PM 41.1947 -80.4453 276° West 484 557 43,100 -60 Level Cleveland Center
03:15PM 41.2117 -80.6161 278° West 484 557 43,000 -60 Descending Cleveland Center
03:16PM 41.2303 -80.8067 277° West 484 557 43,000  Level Cleveland Center
03:17PM 41.2483 -80.9836 278° West 484 557 43,000  Level Cleveland Center
03:18PM 41.2644 -81.1578 277° West 484 557 43,000  Level Cleveland Center
03:19PM 41.2822 -81.3292 278° West 482 555 43,000  Level Cleveland Center
03:20PM 41.3017 -81.5064 278° West 477 549 43,100  Climbing Cleveland Center
03:21PM 41.3189 -81.6808 278° West 482 555 43,100 -60 Level Cleveland Center
03:22PM 41.3339 -81.8497 277° West 482 555 43,000  Descending Cleveland Center
03:23PM 41.3483 -82.0242 276° West 482 555 43,100  Climbing Cleveland Center
03:24PM 41.3586 -82.2069 274° West 488 562 43,100  Level Cleveland Center
03:25PM 41.3706 -82.3789 275° West 486 559 43,100 120 Level Cleveland Center
03:26PM 41.3864 -82.5564 277° West 480 552 43,400 480 Climbing Cleveland Center
03:27PM 41.4356 -82.7131 293° West 466 536 44,100 660 Climbing Cleveland Center
03:28PM 41.4806 -82.8642 292° West 452 520 44,800 480 Climbing Cleveland Center
03:29PM 41.5297 -83.0158 293° West 446 513 45,100 60 Climbing Cleveland Center
03:30PM 41.5742 -83.1728 291° West 446 513 45,000 -60 Descending Cleveland Center
03:31PM 41.5917 -83.3181 279° West 446 513 45,000  Level Cleveland Center
03:32PM 41.6000 -83.4850 274° West 452 520 45,100  Climbing Cleveland Center
03:33PM 41.6019 -83.6544 271° West 457 526 45,100 -60 Level Cleveland Center
03:34PM 41.5950 -83.8264 267° West 462 532 45,000 -60 Descending Cleveland Center
03:35PM 41.5817 -83.9836 264° West 460 529 45,000  Level Chicago Center
03:36PM 41.5522 -84.1858 259° West 463 533 45,100  Climbing Chicago Center
03:37PM 41.5194 -84.3525 255° West 463 533 45,100  Level Chicago Center
03:38PM 41.4744 -84.5150 250° West 465 535 45,100 -60 Level Chicago Center
03:39PM 41.4286 -84.6769 249° West 466 536 45,000 -60 Descending Chicago Center
03:40PM 41.3856 -84.8419 251° West 469 540 45,000  Level Chicago Center
03:41PM 41.3603 -85.0106 259° West 466 536 45,100  Climbing Chicago Center
03:42PM 41.3444 -85.1817 263° West 461 531 45,000  Descending Chicago Center
03:43PM 41.3314 -85.3536 264° West 463 533 45,100  Climbing Chicago Center
03:44PM 41.2972 -85.5581 258° West 465 535 45,100 -60 Level Chicago Center
03:45PM 41.2683 -85.7272 257° West 467 537 45,000 -60 Descending Chicago Center
03:46PM 41.2486 -85.8964 261° West 463 533 45,000  Level Chicago Center
03:47PM 41.2272 -86.0658 261° West 465 535 45,100  Climbing Chicago Center
03:48PM 41.2100 -86.2339 262° West 462 532 45,100 -60 Level Chicago Center
03:49PM 41.1928 -86.4042 262° West 465 535 45,000  Descending Chicago Center
03:50PM 41.1836 -86.5744 266° West 464 534 45,100  Climbing Chicago Center
03:51PM 41.1994 -86.7556 277° West 466 536 45,100  Level Chicago Center
03:52PM 41.2161 -86.9569 276° West 462 532 45,100 -60 Level Chicago Center
03:53PM 41.2328 -87.1267 277° West 464 534 45,000 -60 Descending Chicago Center
03:54PM 41.2458 -87.2953 276° West 463 533 45,000  Level Chicago Center
03:55PM 41.2578 -87.4644 275° West 462 532 45,000  Level Chicago Center
03:56PM 41.2725 -87.6308 277° West 458 527 45,000  Level Chicago Center
03:57PM 41.2856 -87.8006 276° West 461 531 45,000  Level Chicago Center
03:58PM 41.2981 -87.9708 276° West 462 532 45,000  Level Chicago Center
04:00PM 41.3147 -88.1522 277° West 472 543 45,000  Level Chicago Center
04:01PM 41.3272 -88.3517 275° West 461 531 45,000  Level Chicago Center
04:02PM 41.3394 -88.5214 276° West 462 532 45,000  Level Chicago Center
04:03PM 41.3514 -88.6900 275° West 462 532 45,000  Level Chicago Center
04:04PM 41.3636 -88.8608 276° West 465 535 45,000  Level Chicago Center
04:05PM 41.3747 -89.0308 275° West 464 534 45,000  Level Chicago Center
04:06PM 41.3864 -89.2047 275° West 469 540 45,000  Level Chicago Center
04:07PM 41.4014 -89.4094 276° West 465 535 45,000  Level Chicago Center
04:08PM 41.4119 -89.5806 275° West 465 535 45,000  Level Chicago Center
04:09PM 41.4225 -89.7508 275° West 463 533 45,000  Level Chicago Center
04:10PM 41.4336 -89.9217 275° West 464 534 45,100  Climbing Chicago Center
04:11PM 41.4436 -90.0925 275° West 465 535 45,000 -60 Descending Chicago Center
04:12PM 41.4533 -90.2633 274° West 464 534 45,000  Level Chicago Center
04:13PM 41.4656 -90.4692 275° West 466 536 45,000  Level Chicago Center
04:14PM 41.4731 -90.6439 273° West 472 543 45,100  Climbing Chicago Center
04:15PM 41.4817 -90.8189 274° West 477 549 45,000 -60 Descending Chicago Center
04:16PM 41.4897 -90.9897 274° West 467 537 45,000  Level Chicago Center
04:17PM 41.4981 -91.1603 274° West 464 534 45,000  Level Chicago Center
04:18PM 41.5083 -91.3633 274° West 462 532 45,100  Climbing Chicago Center
04:19PM 41.5281 -91.5306 279° West 459 528 45,000  Descending Chicago Center
04:20PM 41.5492 -91.6986 280° West 461 531 45,100  Climbing Chicago Center
04:21PM 41.5697 -91.8664 279° West 461 531 45,100 -60 Level Chicago Center
04:22PM 41.5906 -92.0344 279° West 459 528 45,000 -60 Descending Chicago Center
04:23PM 41.6106 -92.2036 279° West 463 533 45,000  Level Chicago Center
04:24PM 41.6347 -92.4047 279° West 461 531 45,000  Level Chicago Center
04:25PM 41.6542 -92.5739 279° West 462 532 45,000  Level Chicago Center
04:26PM 41.6661 -92.6728 279° West 461 531 45,000  Level Minneapolis Center
04:27PM 41.6883 -92.8756 278° West 463 533 45,000  Level Minneapolis Center
04:28PM 41.7072 -93.0431 279° West 461 531 45,000  Level Minneapolis Center
04:29PM 41.7253 -93.2089 278° West 459 528 45,000  Level Minneapolis Center
04:30PM 41.7439 -93.3783 278° West 463 533 45,000  Level Minneapolis Center
04:31PM 41.7656 -93.5747 278° West 451 519 45,000  Level Minneapolis Center
04:32PM 41.7792 -93.7092 278° West 456 525 45,000  Level Minneapolis Center
04:33PM 41.7958 -93.8719 278° West 456 525 45,000  Level Minneapolis Center
04:35PM 41.8172 -94.0767 278° West 460 529 45,000  Level Minneapolis Center
04:36PM 41.8417 -94.3133 278° West 458 527 45,000  Level Minneapolis Center
04:37PM 41.8542 -94.4492 277° West 459 528 45,100  Climbing Minneapolis Center
04:38PM 41.8733 -94.6525 277° West 458 527 45,000 -60 Descending Minneapolis Center
04:39PM 41.8917 -94.8233 278° West 460 529 45,000  Level Minneapolis Center
04:40PM 41.9078 -94.9925 277° West 459 528 45,000  Level Minneapolis Center
04:41PM 41.9203 -95.1278 277° West 459 528 45,000  Level Minneapolis Center
04:42PM 41.9411 -95.3642 277° West 459 528 45,000  Level Minneapolis Center
04:43PM 41.9561 -95.5331 277° West 458 527 45,100  Climbing Minneapolis Center
04:44PM 41.9703 -95.6994 277° West 453 521 45,000 -60 Descending Minneapolis Center
04:45PM 41.9847 -95.8647 277° West 449 517 45,000  Level Minneapolis Center
04:46PM 41.9986 -96.0308 276° West 450 518 45,000  Level Minneapolis Center
04:47PM 42.0150 -96.2283 276° West 448 516 45,000  Level Minneapolis Center
04:48PM 42.0283 -96.3939 276° West 448 516 45,000  Level Minneapolis Center
04:49PM 42.0419 -96.5603 276° West 449 517 45,000  Level Minneapolis Center
04:50PM 42.0550 -96.7253 276° West 448 516 45,000  Level Minneapolis Center
04:51PM 42.0675 -96.8925 276° West 448 516 45,100  Climbing Minneapolis Center
04:52PM 42.0833 -97.0928 276° West 451 519 45,000 -60 Descending Minneapolis Center
04:54PM 42.0969 -97.2922 275° West 448 516 45,000  Level Minneapolis Center
04:55PM 42.1117 -97.4925 276° West 449 517 45,000  Level Minneapolis Center
04:56PM 42.1269 -97.6917 276° West 447 514 45,000  Level Minneapolis Center
04:57PM 42.1386 -97.8686 275° West 450 518 45,100  Climbing Minneapolis Center
04:58PM 42.1472 -98.0022 275° West 448 516 45,100  Level Minneapolis Center
04:59PM 42.1611 -98.2014 275° West 447 514 45,100  Level Minneapolis Center
05:00PM 42.1761 -98.4350 275° West 447 514 45,100  Level Minneapolis Center
05:01PM 42.1853 -98.6000 274° West 445 512 45,100  Level Minneapolis Center
05:02PM 42.1958 -98.7642 275° West 443 510 45,100  Level Denver Center
05:03PM 42.2053 -98.9289 274° West 442 509 45,100  Level Minneapolis Center
05:04PM 42.2147 -99.0933 274° West 441 507 45,100  Level Minneapolis Center
05:05PM 42.2239 -99.2594 274° West 444 511 45,100 -60 Level Minneapolis Center
05:06PM 42.2356 -99.4578 275° West 444 511 45,000  Descending Denver Center
05:07PM 42.2436 -99.6239 274° West 446 513 45,100  Climbing Denver Center
05:08PM 42.2536 -99.7900 275° West 446 513 45,000  Descending Minneapolis Center
05:09PM 42.2617 -99.9783 273° West 447 514 45,100  Climbing Denver Center
05:11PM 42.2700 -100.1394 274° West 450 518 45,100  Level Denver Center
05:12PM 42.2775 -100.3006 274° West 450 518 45,100  Level Denver Center
05:13PM 42.2861 -100.4894 274° West 452 520 45,100  Level Denver Center
05:14PM 42.2933 -100.6517 273° West 453 521 45,100 -60 Level Denver Center
05:15PM 42.3022 -100.8417 274° West 455 524 45,000  Descending Denver Center
05:16PM 42.3081 -101.0056 273° West 456 525 45,100  Climbing Denver Center
05:17PM 42.3169 -101.1936 274° West 451 519 45,100  Level Denver Center
05:18PM 42.3217 -101.3567 272° West 454 522 45,100 -60 Level Denver Center
05:19PM 42.3289 -101.5453 273° West 452 520 45,000  Descending Denver Center
05:20PM 42.3347 -101.7089 273° West 455 524 45,100  Climbing Denver Center
05:21PM 42.3422 -101.8897 273° West 453 521 45,000  Descending Denver Center
05:22PM 42.3467 -102.0794 272° West 453 521 45,100  Climbing Denver Center
05:23PM 42.3514 -102.2406 272° West 449 517 45,000  Descending Denver Center
05:24PM 42.3569 -102.4019 273° West 448 516 45,100  Climbing Denver Center
05:25PM 42.3619 -102.5919 272° West 452 520 45,000  Descending Denver Center
05:26PM 42.3672 -102.7544 273° West 454 522 45,100  Climbing Denver Center
05:27PM 42.3706 -102.9453 271° West 454 522 45,100  Level Denver Center
05:28PM 42.3747 -103.1081 272° West 453 521 45,100  Level Denver Center
05:29PM 42.3786 -103.2981 272° West 453 521 45,100  Level Denver Center
05:30PM 42.3811 -103.4614 271° West 452 520 45,100 -60 Level Denver Center
05:31PM 42.3856 -103.6533 272° West 456 525 45,000  Descending Denver Center
05:32PM 42.3881 -103.8178 271° West 456 525 45,100  Climbing Denver Center
05:33PM 42.3906 -104.0111 271° West 458 527 45,100 -60 Level Denver Center
05:34PM 42.3919 -104.1758 271° West 457 526 45,000  Descending Denver Center
05:35PM 42.3933 -104.3425 271° West 458 527 45,100  Climbing Denver Center
05:36PM 42.3933 -104.5367 270° West 457 526 45,000 60 Descending Denver Center
05:37PM 42.3933 -104.7050 270° West 459 528 45,300 240 Climbing Denver Center
05:38PM 42.3983 -104.8956 272° West 452 520 45,600 240 Climbing Denver Center
05:40PM 42.4000 -105.0553 271° West 443 510 45,900 120 Climbing Denver Center
05:41PM 42.4011 -105.2692 270° West 446 513 46,000 60 Climbing Denver Center
05:42PM 42.4019 -105.4322 270° West 451 519 46,100  Climbing Denver Center
05:43PM 42.4022 -105.6219 270° West 454 522 46,100 -60 Level Denver Center
05:44PM 42.4022 -105.7836 270° West 451 519 46,000  Descending Denver Center
05:45PM 42.4000 -105.9983 269° West 447 514 46,100  Climbing Denver Center
05:46PM 42.4006 -106.1589 270° West 449 517 46,000  Descending Denver Center
05:47PM 42.3992 -106.3467 269° West 448 516 46,100  Climbing Denver Center
05:48PM 42.3992 -106.5075 270° West 448 516 46,100  Level Denver Center
05:49PM 42.3975 -106.6981 269° West 452 520 46,100  Level Denver Center
05:50PM 42.3958 -106.8597 269° West 451 519 46,100  Level Denver Center
05:51PM 42.3931 -107.0456 269° West 444 511 46,100  Level Denver Center
05:52PM 42.3908 -107.2061 269° West 446 513 46,100 -60 Level Denver Center
05:53PM 42.3892 -107.3925 269° West 445 512 46,000  Descending Denver Center
05:54PM 42.3861 -107.5519 269° West 445 512 46,100  Climbing Denver Center
05:55PM 42.3828 -107.7386 269° West 445 512 46,000  Descending Denver Center
05:56PM 42.3806 -107.9258 269° West 444 511 46,100  Climbing Salt Lake Center
05:58PM 42.3775 -108.0861 269° West 445 512 46,100  Level Salt Lake Center
05:59PM 42.3736 -108.2728 268° West 446 513 46,100  Level Salt Lake Center
06:00PM 42.3689 -108.4331 268° West 446 513 46,100  Level Salt Lake Center
06:01PM 42.3639 -108.6208 268° West 450 518 46,100 -60 Level Salt Lake Center
06:02PM 42.3594 -108.7814 268° West 448 516 46,000 -60 Descending Salt Lake Center
06:03PM 42.3544 -108.9414 268° West 448 516 46,000  Level Salt Lake Center
06:04PM 42.3492 -109.1283 268° West 447 514 46,100  Climbing Salt Lake Center
06:05PM 42.3439 -109.2900 268° West 450 518 46,100  Level Salt Lake Center
06:06PM 42.3381 -109.4781 268° West 450 518 46,100 -60 Level Salt Lake Center
06:07PM 42.3319 -109.6417 267° West 455 524 46,000  Descending Salt Lake Center
06:08PM 42.3247 -109.8306 267° West 453 521 46,100  Climbing Salt Lake Center
06:09PM 42.3192 -109.9936 267° West 455 524 46,100  Level Salt Lake Center
06:10PM 42.3106 -110.1836 267° West 455 524 46,100  Level Salt Lake Center
06:11PM 42.3050 -110.3475 267° West 457 526 46,100  Level Salt Lake Center
06:12PM 42.2969 -110.5394 267° West 458 527 46,100  Level Salt Lake Center
06:13PM 42.2894 -110.7036 267° West 459 528 46,100  Level Salt Lake Center
06:14PM 42.2808 -110.8942 267° West 457 526 46,100 -60 Level Salt Lake Center
06:15PM 42.2736 -111.0500 266° West 462 532 46,000  Descending Salt Lake Center
06:16PM 42.2639 -111.2572 266° West 463 533 46,100  Climbing Salt Lake Center
06:17PM 42.2550 -111.4286 266° West 461 531 46,100 -60 Level Salt Lake Center
06:18PM 42.2461 -111.6008 266° West 463 533 46,000 -420 Descending Salt Lake Center
06:19PM 42.2364 -111.7719 266° West 460 529 45,300 -480 Descending Salt Lake Center
06:20PM 42.2283 -111.9394 266° West 452 520 45,100 -1,260 Descending Salt Lake Center
06:21PM 42.2164 -112.1378 265° West 447 514 42,700 -2,400 Descending Salt Lake Center
06:22PM 42.2069 -112.3036 266° West 446 513 40,200 -2,520 Descending Salt Lake Center
06:23PM 42.2008 -112.4756 267° West 457 526 37,500 -2,820 Descending Salt Lake Center
06:24PM 42.2253 -112.6475 281° West 468 539 34,400 -3,060 Descending Salt Lake Center
06:25PM 42.2508 -112.8164 282° West 465 535 31,200 -3,360 Descending Salt Lake Center
06:26PM 42.2744 -112.9931 280° West 474 545 27,500 -3,420 Descending Salt Lake Center
06:28PM 42.3064 -113.1986 282° West 471 542 24,200 -2,040 Descending Salt Lake Center
06:29PM 42.3292 -113.3653 281° West 458 527 23,400 -1,860 Descending Salt Lake Center
06:30PM 42.3517 -113.5286 281° West 448 516 20,400 -3,180 Descending Salt Lake Center
06:31PM 42.3731 -113.6839 281° West 432 497 16,900 -3,540 Descending Salt Lake Center
06:32PM 42.3925 -113.8281 280° West 403 464 13,100 -2,400 Descending Salt Lake Center
06:33PM 42.4156 -113.9997 280° West 412 474 12,000 -720 Descending Salt Lake Center
06:34PM 42.4294 -114.1150 279° West 352 405 11,700 -1,020 Descending Salt Lake Center
06:35PM 42.4519 -114.2192 286° West 249 287 9,900 -1,920 Descending Salt Lake Center
06:36PM 42.4678 -114.2939 286° West 202 232 7,800 -1,500 Descending Salt Lake Center
06:37PM 42.4775 -114.3481 284° West 189 217 6,800 -1,020 Descending Salt Lake Center
06:39PM 42.4667 -114.4833 North  Level FlightAware Approximate